createdAt,value
2023-04-29T00:02:03.712Z,99779.69
2023-04-29T00:04:31.882Z,99765.75
2023-04-29T00:06:59.242Z,99766.53
2023-04-29T00:09:29.230Z,99762.56
2023-04-29T00:11:56.327Z,99758.59
2023-04-29T00:14:23.241Z,99763.69
2023-04-29T00:16:53.209Z,99763.53
2023-04-29T00:19:21.336Z,99754.72
2023-04-29T00:21:49.421Z,99757.91
2023-04-29T00:24:18.048Z,99746.75
2023-04-29T00:26:44.984Z,99751.38
2023-04-29T00:29:12.176Z,99752.25
2023-04-29T00:31:39.221Z,99751.44
2023-04-29T00:34:08.229Z,99750.81
2023-04-29T00:36:35.301Z,99746.25
2023-04-29T00:39:04.172Z,99746.97
2023-04-29T00:41:32.163Z,99743.78
2023-04-29T00:43:59.301Z,99743.25
2023-04-29T00:46:26.260Z,99748.22
2023-04-29T00:48:54.487Z,99744.25
2023-04-29T00:51:21.696Z,99747.72
2023-04-29T00:53:49.765Z,99749.88
2023-04-29T00:56:17.480Z,99748.69
2023-04-29T00:58:50.394Z,99749.03
2023-04-29T01:01:19.411Z,99746.03
2023-04-29T01:03:47.791Z,99755.56
2023-04-29T01:06:51.214Z,99749.47
2023-04-29T01:09:31.983Z,99747.91
2023-04-29T01:12:22.935Z,99753.31
2023-04-29T01:15:06.916Z,99740.75
2023-04-29T01:17:44.481Z,99753.91
2023-04-29T01:20:15.228Z,99747.13
2023-04-29T01:22:43.146Z,99739.94
2023-04-29T01:25:10.139Z,99745.53
2023-04-29T01:28:15.855Z,99738.38
2023-04-29T01:31:24.098Z,99747.22
2023-04-29T01:34:19.158Z,99744.88
2023-04-29T01:37:06.468Z,99746.78
2023-04-29T01:40:12.181Z,99748.84
2023-04-29T01:43:00.150Z,99756.03
2023-04-29T01:45:28.998Z,99753.97
2023-04-29T01:47:57.619Z,99743.56
2023-04-29T01:50:25.909Z,99748.56
2023-04-29T01:52:54.644Z,99756.34
2023-04-29T01:55:22.575Z,99749.34
2023-04-29T01:58:04.519Z,99756.13
2023-04-29T02:00:51.686Z,99754.31
2023-04-29T02:03:20.622Z,99743.94
2023-04-29T02:05:51.671Z,99755.50
2023-04-29T02:08:18.952Z,99751.72
2023-04-29T02:10:57.964Z,99753.53
2023-04-29T02:13:37.816Z,99752.31
2023-04-29T02:16:12.950Z,99751.72
2023-04-29T02:19:00.168Z,99744.34
2023-04-29T02:21:30.098Z,99736.34
2023-04-29T02:23:57.125Z,99731.94
2023-04-29T02:26:26.532Z,99737.19
2023-04-29T02:28:57.334Z,99740.56
2023-04-29T02:31:26.123Z,99741.00
2023-04-29T02:33:54.905Z,99744.00
2023-04-29T02:36:22.093Z,99739.19
2023-04-29T02:38:54.650Z,99751.25
2023-04-29T02:41:21.614Z,99757.22
2023-04-29T02:43:50.504Z,99764.22
2023-04-29T02:46:18.953Z,99759.63
2023-04-29T02:48:46.156Z,99752.25
2023-04-29T02:51:14.587Z,99757.38
2023-04-29T02:53:42.916Z,99751.03
2023-04-29T02:56:09.905Z,99746.19
2023-04-29T02:58:37.821Z,99745.28
2023-04-29T03:01:05.017Z,99736.09
2023-04-29T03:03:32.442Z,99734.53
2023-04-29T03:05:59.756Z,99738.94
2023-04-29T03:08:29.298Z,99738.94
2023-04-29T03:10:57.157Z,99745.72
2023-04-29T03:13:25.285Z,99743.50
2023-04-29T03:15:52.227Z,99737.16
2023-04-29T03:18:19.222Z,99735.72
2023-04-29T03:20:46.064Z,99730.91
2023-04-29T03:23:12.991Z,99735.31
2023-04-29T03:25:40.792Z,99724.13
2023-04-29T03:28:07.987Z,99739.13
2023-04-29T03:30:35.581Z,99740.16
2023-04-29T03:33:02.576Z,99742.97
2023-04-29T03:35:30.591Z,99741.00
2023-04-29T03:38:19.638Z,99741.31
2023-04-29T03:40:48.529Z,99743.75
2023-04-29T03:43:17.197Z,99743.56
2023-04-29T03:45:44.264Z,99742.19
2023-04-29T03:48:12.543Z,99742.19
2023-04-29T03:50:39.939Z,99755.69
2023-04-29T03:53:07.240Z,99757.34
2023-04-29T03:55:34.419Z,99763.69
2023-04-29T03:58:01.819Z,99757.75
2023-04-29T04:00:31.319Z,99763.69
2023-04-29T04:03:02.689Z,99768.88
2023-04-29T04:05:31.926Z,99766.72
2023-04-29T04:08:06.375Z,99779.16
2023-04-29T04:10:41.958Z,99773.63
2023-04-29T04:13:26.129Z,99768.00
2023-04-29T04:15:53.064Z,99765.81
2023-04-29T04:18:20.164Z,99765.97
2023-04-29T04:20:47.559Z,99761.03
2023-04-29T04:23:14.819Z,99766.06
2023-04-29T04:25:49.963Z,99769.69
2023-04-29T04:28:36.048Z,99767.28
2023-04-29T04:31:12.256Z,99767.84
2023-04-29T04:33:43.381Z,99762.44
2023-04-29T04:36:10.243Z,99768.41
2023-04-29T04:38:39.717Z,99762.63
2023-04-29T04:41:11.111Z,99763.56
2023-04-29T04:43:41.043Z,99760.38
2023-04-29T04:46:16.975Z,99751.91
2023-04-29T04:48:55.184Z,99752.72
2023-04-29T04:51:22.308Z,99752.72
2023-04-29T04:53:49.256Z,99762.28
2023-04-29T04:56:22.060Z,99760.63
2023-04-29T04:58:49.733Z,99762.69
2023-04-29T05:01:16.660Z,99757.84
2023-04-29T05:03:44.149Z,99759.84
2023-04-29T05:06:15.865Z,99751.50
2023-04-29T05:08:54.836Z,99745.72
2023-04-29T05:11:25.947Z,99754.34
2023-04-29T05:14:09.571Z,99757.75
2023-04-29T05:16:39.000Z,99760.31
2023-04-29T05:19:09.775Z,99755.53
2023-04-29T05:21:39.346Z,99758.50
2023-04-29T05:24:08.894Z,99752.94
2023-04-29T05:26:36.272Z,99757.53
2023-04-29T05:29:03.178Z,99762.81
2023-04-29T05:31:37.312Z,99764.81
2023-04-29T05:34:07.409Z,99767.09
2023-04-29T05:36:36.755Z,99762.00
2023-04-29T05:39:05.230Z,99772.63
2023-04-29T05:41:32.143Z,99770.22
2023-04-29T05:44:19.391Z,99767.53
2023-04-29T05:46:48.833Z,99775.75
2023-04-29T05:49:16.451Z,99775.50
2023-04-29T05:51:43.439Z,99772.50
2023-04-29T05:54:10.462Z,99778.94
2023-04-29T05:56:38.895Z,99791.03
2023-04-29T05:59:05.768Z,99791.53
2023-04-29T06:01:34.418Z,99778.31
2023-04-29T06:04:01.673Z,99790.38
2023-04-29T06:06:58.098Z,99797.50
2023-04-29T06:09:59.017Z,99797.50
2023-04-29T06:12:27.526Z,99794.28
2023-04-29T06:14:54.589Z,99795.34
2023-04-29T06:17:21.594Z,99796.22
2023-04-29T06:19:48.437Z,99796.91
2023-04-29T06:22:15.363Z,99792.06
2023-04-29T06:24:50.569Z,99809.50
2023-04-29T06:27:25.952Z,99800.09
2023-04-29T06:29:53.277Z,99801.44
2023-04-29T06:32:21.145Z,99804.38
2023-04-29T06:34:48.135Z,99804.59
2023-04-29T06:37:26.309Z,99798.13
2023-04-29T06:40:15.545Z,99798.38
2023-04-29T06:43:06.122Z,99798.72
2023-04-29T06:45:51.847Z,99802.53
2023-04-29T06:48:28.140Z,99805.16
2023-04-29T06:50:57.306Z,99816.28
2023-04-29T06:53:26.098Z,99812.22
2023-04-29T06:55:53.107Z,99829.44
2023-04-29T06:58:25.509Z,99817.31
2023-04-29T07:00:52.741Z,99817.91
2023-04-29T07:03:22.736Z,99826.31
2023-04-29T07:05:50.715Z,99827.97
2023-04-29T07:08:17.585Z,99829.63
2023-04-29T07:10:44.457Z,99827.75
2023-04-29T07:13:11.267Z,99823.50
2023-04-29T07:15:38.380Z,99821.63
2023-04-29T07:18:06.818Z,99830.31
2023-04-29T07:20:36.966Z,99825.47
2023-04-29T07:23:04.237Z,99826.19
2023-04-29T07:25:31.103Z,99830.59
2023-04-29T07:27:58.176Z,99831.78
2023-04-29T07:30:26.435Z,99829.13
2023-04-29T07:32:53.469Z,99831.78
2023-04-29T07:35:21.916Z,99833.47
2023-04-29T07:37:49.439Z,99829.94
2023-04-29T07:40:19.402Z,99836.81
2023-04-29T07:42:47.932Z,99821.81
2023-04-29T07:45:15.606Z,99836.50
2023-04-29T07:48:14.643Z,99842.84
2023-04-29T07:50:39.486Z,99839.63
2023-04-29T07:53:06.824Z,99838.56
2023-04-29T07:55:33.832Z,99844.03
2023-04-29T07:58:02.775Z,99846.16
2023-04-29T08:00:31.567Z,99845.25
2023-04-29T08:02:58.772Z,99849.91
2023-04-29T08:05:28.199Z,99850.66
2023-04-29T08:07:55.558Z,99853.44
2023-04-29T08:10:26.274Z,99853.66
2023-04-29T08:12:54.509Z,99869.56
2023-04-29T08:15:23.461Z,99862.00
2023-04-29T08:17:50.549Z,99862.22
2023-04-29T08:20:17.567Z,99872.16
2023-04-29T08:22:44.333Z,99877.06
2023-04-29T08:25:11.480Z,99878.75
2023-04-29T08:27:38.328Z,99870.41
2023-04-29T08:30:06.177Z,99865.09
2023-04-29T08:32:34.634Z,99863.53
2023-04-29T08:35:01.948Z,99867.59
2023-04-29T08:37:31.531Z,99868.50
2023-04-29T08:39:58.297Z,99875.94
2023-04-29T08:42:37.897Z,99872.84
2023-04-29T08:45:05.610Z,99871.53
2023-04-29T08:47:34.539Z,99865.59
2023-04-29T08:50:05.934Z,99869.25
2023-04-29T08:52:34.314Z,99863.22
2023-04-29T08:55:05.719Z,99861.69
2023-04-29T08:57:42.515Z,99863.22
2023-04-29T09:00:10.916Z,99855.94
2023-04-29T09:02:56.499Z,99849.75
2023-04-29T09:05:24.414Z,99855.25
2023-04-29T09:07:54.002Z,99862.06
2023-04-29T09:10:21.405Z,99866.56
2023-04-29T09:12:48.289Z,99871.19
2023-04-29T09:15:15.195Z,99865.56
2023-04-29T09:17:49.039Z,99863.03
2023-04-29T09:20:22.343Z,99856.81
2023-04-29T09:22:53.548Z,99859.88
2023-04-29T09:25:21.129Z,99861.66
2023-04-29T09:27:48.017Z,99857.72
2023-04-29T09:30:16.678Z,99851.56
2023-04-29T09:32:45.791Z,99854.88
2023-04-29T09:35:27.355Z,99854.78
2023-04-29T09:38:07.833Z,99861.72
2023-04-29T09:40:46.590Z,99849.00
2023-04-29T09:43:23.803Z,99855.72
2023-04-29T09:45:50.868Z,99850.78
2023-04-29T09:48:18.735Z,99848.38
2023-04-29T09:50:58.850Z,99859.28
2023-04-29T09:53:30.407Z,99872.88
2023-04-29T09:56:02.790Z,99873.34
2023-04-29T09:58:37.020Z,99860.34
2023-04-29T10:01:04.984Z,99868.59
2023-04-29T10:03:36.662Z,99869.38
2023-04-29T10:06:05.781Z,99877.03
2023-04-29T10:08:33.832Z,99875.91
2023-04-29T10:11:05.940Z,99870.03
2023-04-29T10:13:38.697Z,99876.44
2023-04-29T10:16:31.537Z,99867.50
2023-04-29T10:19:04.355Z,99868.63
2023-04-29T10:21:33.827Z,99868.03
2023-04-29T10:24:03.753Z,99861.63
2023-04-29T10:26:32.182Z,99863.41
2023-04-29T10:29:00.287Z,99860.41
2023-04-29T10:31:28.689Z,99856.97
2023-04-29T10:33:58.055Z,99851.34
2023-04-29T10:36:28.641Z,99843.34
2023-04-29T10:39:01.814Z,99837.59
2023-04-29T10:41:47.280Z,99839.22
2023-04-29T10:44:14.572Z,99836.66
2023-04-29T10:46:41.514Z,99840.25
2023-04-29T10:49:10.804Z,99835.03
2023-04-29T10:51:46.851Z,99835.56
2023-04-29T10:54:15.490Z,99834.34
2023-04-29T10:56:46.042Z,99834.97
2023-04-29T10:59:14.579Z,99828.44
2023-04-29T11:01:45.488Z,99831.59
2023-04-29T11:04:12.756Z,99831.53
2023-04-29T11:06:41.528Z,99831.22
2023-04-29T11:09:18.600Z,99831.66
2023-04-29T11:11:59.305Z,99837.31
2023-04-29T11:14:33.118Z,99834.94
2023-04-29T11:17:03.187Z,99838.81
2023-04-29T11:19:35.571Z,99832.59
2023-04-29T11:22:10.284Z,99833.34
2023-04-29T11:24:48.370Z,99836.47
2023-04-29T11:27:16.338Z,99829.94
2023-04-29T11:29:45.362Z,99830.44
2023-04-29T11:32:12.424Z,99810.59
2023-04-29T11:34:40.196Z,99807.63
2023-04-29T11:37:07.016Z,99809.81
2023-04-29T11:39:37.048Z,99811.84
2023-04-29T11:42:05.414Z,99825.66
2023-04-29T11:44:36.026Z,99828.41
2023-04-29T11:47:04.241Z,99820.28
2023-04-29T11:49:33.053Z,99819.00
2023-04-29T11:52:01.506Z,99814.00
2023-04-29T11:54:31.737Z,99820.97
2023-04-29T11:57:04.944Z,99813.34
2023-04-29T11:59:33.377Z,99795.34
2023-04-29T12:02:03.186Z,99805.97
2023-04-29T12:04:30.605Z,99806.59
2023-04-29T12:06:59.781Z,99801.66
2023-04-29T12:09:26.717Z,99794.06
2023-04-29T12:11:54.035Z,99785.78
2023-04-29T12:14:21.182Z,99773.06
2023-04-29T12:16:48.433Z,99780.88
2023-04-29T12:19:15.968Z,99785.41
2023-04-29T12:21:50.179Z,99779.38
2023-04-29T12:24:17.264Z,99797.28
2023-04-29T12:26:46.914Z,99789.53
2023-04-29T12:29:14.704Z,99785.41
2023-04-29T12:31:42.136Z,99781.19
2023-04-29T12:34:10.316Z,99782.47
2023-04-29T12:36:38.351Z,99786.19
2023-04-29T12:39:10.139Z,99774.66
2023-04-29T12:41:41.418Z,99778.63
2023-04-29T12:44:08.785Z,99769.84
2023-04-29T12:46:40.820Z,99773.34
2023-04-29T12:49:09.496Z,99773.69
2023-04-29T12:51:36.921Z,99763.50
2023-04-29T12:54:06.372Z,99770.66
2023-04-29T12:56:33.488Z,99764.19
2023-04-29T12:59:10.615Z,99758.88
2023-04-29T13:01:39.779Z,99773.13
2023-04-29T13:04:09.337Z,99768.91
2023-04-29T13:06:39.873Z,99762.81
2023-04-29T13:09:17.465Z,99767.06
2023-04-29T13:11:45.682Z,99759.81
2023-04-29T13:14:13.750Z,99768.31
2023-04-29T13:16:42.316Z,99761.84
2023-04-29T13:19:29.579Z,99755.91
2023-04-29T13:21:56.211Z,99747.03
2023-04-29T13:24:23.124Z,99730.78
2023-04-29T13:26:52.424Z,99730.78
2023-04-29T13:29:21.100Z,99740.72
2023-04-29T13:31:48.356Z,99749.66
2023-04-29T13:34:15.818Z,99753.13
2023-04-29T13:36:42.820Z,99754.91
2023-04-29T13:39:10.738Z,99749.38
2023-04-29T13:41:37.724Z,99756.53
2023-04-29T13:44:20.659Z,99746.00
2023-04-29T13:46:55.138Z,99739.69
2023-04-29T13:54:57.474Z,99749.19
2023-04-29T13:59:51.812Z,99743.91
2023-04-29T14:02:25.943Z,99743.34
2023-04-29T14:04:55.862Z,99745.44
2023-04-29T14:07:24.262Z,99750.41
2023-04-29T14:09:53.150Z,99743.13
2023-04-29T14:12:20.677Z,99744.94
2023-04-29T14:14:47.584Z,99750.78
2023-04-29T14:17:14.628Z,99749.44
2023-04-29T14:19:41.647Z,99748.16
2023-04-29T14:22:08.784Z,99755.25
2023-04-29T14:24:35.789Z,99754.47
2023-04-29T14:27:03.257Z,99768.59
2023-04-29T14:29:30.965Z,99758.81
2023-04-29T14:31:57.871Z,99754.59
2023-04-29T14:34:24.786Z,99761.59
2023-04-29T14:36:52.213Z,99753.69
2023-04-29T14:39:19.120Z,99743.63
2023-04-29T14:41:46.860Z,99726.31
2023-04-29T14:44:13.969Z,99724.03
2023-04-29T14:46:42.171Z,99731.41
2023-04-29T14:49:09.557Z,99731.63
2023-04-29T14:51:36.507Z,99727.94
2023-04-29T14:54:03.496Z,99725.84
2023-04-29T14:56:30.840Z,99749.84
2023-04-29T14:58:58.511Z,99754.41
2023-04-29T15:01:27.907Z,99745.41
2023-04-29T15:03:56.289Z,99735.84
2023-04-29T15:06:23.374Z,99747.59
2023-04-29T15:08:51.324Z,99747.09
2023-04-29T15:11:19.598Z,99747.50
2023-04-29T15:13:46.480Z,99749.72
2023-04-29T15:16:15.886Z,99745.66
2023-04-29T15:18:45.648Z,99749.25
2023-04-29T15:21:12.874Z,99744.25
2023-04-29T15:23:40.889Z,99739.53
2023-04-29T15:26:08.386Z,99750.16
2023-04-29T15:28:35.293Z,99745.28
2023-04-29T15:31:04.740Z,99750.09
2023-04-29T15:33:31.855Z,99745.94
2023-04-29T15:35:59.041Z,99744.34
2023-04-29T15:38:25.944Z,99743.56
2023-04-29T15:40:56.967Z,99741.66
2023-04-29T15:43:24.511Z,99746.09
2023-04-29T15:45:51.667Z,99767.81
2023-04-29T15:48:18.726Z,99761.84
2023-04-29T15:50:45.774Z,99759.38
2023-04-29T15:53:13.319Z,99766.06
2023-04-29T15:55:40.986Z,99761.69
2023-04-29T15:58:07.926Z,99760.44
2023-04-29T16:00:34.682Z,99754.34
2023-04-29T16:03:01.572Z,99762.41
2023-04-29T16:05:29.050Z,99755.78
2023-04-29T16:07:55.956Z,99749.41
2023-04-29T16:10:23.551Z,99740.94
2023-04-29T16:12:50.512Z,99744.28
2023-04-29T16:15:17.492Z,99743.78
2023-04-29T16:17:44.316Z,99750.53
2023-04-29T16:20:11.801Z,99752.69
2023-04-29T16:22:38.648Z,99744.38
2023-04-29T16:25:07.097Z,99739.59
2023-04-29T16:27:33.979Z,99741.16
2023-04-29T16:30:01.553Z,99748.00
2023-04-29T16:32:31.667Z,99754.81
2023-04-29T16:35:00.123Z,99758.66
2023-04-29T16:37:28.867Z,99746.31
2023-04-29T16:39:55.967Z,99751.94
2023-04-29T16:42:22.915Z,99740.88
2023-04-29T16:44:50.023Z,99743.38
2023-04-29T16:47:20.288Z,99741.63
2023-04-29T16:49:48.077Z,99740.53
2023-04-29T16:52:14.993Z,99738.94
2023-04-29T16:54:42.086Z,99742.34
2023-04-29T16:57:09.110Z,99734.19
2023-04-29T16:59:35.942Z,99734.63
2023-04-29T17:02:03.058Z,99732.75
2023-04-29T17:04:31.432Z,99745.72
2023-04-29T17:06:58.587Z,99744.34
2023-04-29T17:09:27.419Z,99749.84
2023-04-29T17:11:54.380Z,99751.41
2023-04-29T17:14:21.256Z,99755.94
2023-04-29T17:16:48.164Z,99757.97
2023-04-29T17:19:15.112Z,99761.38
2023-04-29T17:21:42.564Z,99760.28
2023-04-29T17:24:09.727Z,99759.50
2023-04-29T17:26:36.495Z,99770.72
2023-04-29T17:29:04.156Z,99767.31
2023-04-29T17:31:45.134Z,99778.56
2023-04-29T17:34:19.227Z,99774.38
2023-04-29T17:36:47.643Z,99776.19
2023-04-29T17:39:17.069Z,99776.19
2023-04-29T17:41:44.327Z,99770.63
2023-04-29T17:44:11.363Z,99777.41
2023-04-29T17:46:38.559Z,99768.69
2023-04-29T17:49:05.881Z,99775.88
2023-04-29T17:51:35.834Z,99781.22
2023-04-29T17:54:07.383Z,99785.56
2023-04-29T17:56:35.187Z,99788.84
2023-04-29T17:59:05.177Z,99794.31
2023-04-29T18:01:33.052Z,99797.13
2023-04-29T18:04:00.184Z,99803.88
2023-04-29T18:06:30.299Z,99802.94
2023-04-29T18:08:57.800Z,99807.06
2023-04-29T18:11:25.291Z,99810.31
2023-04-29T18:13:54.319Z,99812.03
2023-04-29T18:16:23.411Z,99815.66
2023-04-29T18:18:55.996Z,99818.16
2023-04-29T18:21:27.961Z,99816.25
2023-04-29T18:23:58.085Z,99837.59
2023-04-29T18:26:25.038Z,99835.22
2023-04-29T18:28:52.062Z,99843.69
2023-04-29T18:31:20.176Z,99846.75
2023-04-29T18:33:47.845Z,99836.66
2023-04-29T18:36:15.007Z,99845.81
2023-04-29T18:38:42.154Z,99839.50
2023-04-29T18:41:10.363Z,99845.16
2023-04-29T18:43:37.306Z,99854.03
2023-04-29T18:46:05.787Z,99855.44
2023-04-29T18:48:34.300Z,99851.94
2023-04-29T18:51:04.173Z,99852.59
2023-04-29T18:53:31.971Z,99855.63
2023-04-29T18:55:58.913Z,99853.03
2023-04-29T18:58:28.403Z,99857.91
2023-04-29T19:00:59.458Z,99864.13
2023-04-29T19:03:27.259Z,99866.97
2023-04-29T19:05:54.283Z,99868.78
2023-04-29T19:08:21.499Z,99882.63
2023-04-29T19:10:48.317Z,99876.81
2023-04-29T19:13:16.257Z,99878.41
2023-04-29T19:15:43.361Z,99886.00
2023-04-29T19:18:10.413Z,99881.56
2023-04-29T19:20:37.359Z,99885.22
2023-04-29T19:23:04.639Z,99885.66
2023-04-29T19:25:32.958Z,99878.84
2023-04-29T19:28:00.121Z,99878.84
2023-04-29T19:30:26.989Z,99879.06
2023-04-29T19:32:54.051Z,99885.56
2023-04-29T19:35:21.084Z,99897.44
2023-04-29T19:37:47.984Z,99901.84
2023-04-29T19:40:14.910Z,99899.09
2023-04-29T19:42:41.882Z,99889.31
2023-04-29T19:45:10.176Z,99912.22
2023-04-29T19:47:37.072Z,99911.75
2023-04-29T19:50:04.733Z,99912.94
2023-04-29T19:52:31.840Z,99918.84
2023-04-29T19:54:58.869Z,99921.84
2023-04-29T19:57:26.191Z,99924.19
2023-04-29T19:59:53.391Z,99922.50
2023-04-29T20:02:20.510Z,99920.84
2023-04-29T20:04:48.394Z,99924.38
2023-04-29T20:07:15.592Z,99925.31
2023-04-29T20:09:45.152Z,99924.06
2023-04-29T20:12:12.076Z,99927.47
2023-04-29T20:14:38.884Z,99926.88
2023-04-29T20:17:06.286Z,99924.75
2023-04-29T20:19:34.900Z,99917.94
2023-04-29T20:22:01.801Z,99921.66
2023-04-29T20:24:28.687Z,99927.94
2023-04-29T20:26:55.752Z,99924.28
2023-04-29T20:29:23.204Z,99920.09
2023-04-29T20:31:50.178Z,99927.69
2023-04-29T20:34:17.347Z,99929.50
2023-04-29T20:36:44.240Z,99930.53
2023-04-29T20:39:11.110Z,99939.94
2023-04-29T20:41:38.146Z,99927.94
2023-04-29T20:44:08.209Z,99931.56
2023-04-29T20:46:35.515Z,99926.78
2023-04-29T20:49:03.217Z,99927.22
2023-04-29T20:51:30.150Z,99921.63
2023-04-29T20:53:57.010Z,99924.34
2023-04-29T20:56:24.831Z,99928.97
2023-04-29T20:58:51.977Z,99932.59
2023-04-29T21:01:21.773Z,99927.84
2023-04-29T21:03:49.041Z,99931.47
2023-04-29T21:06:17.660Z,99926.25
2023-04-29T21:08:44.700Z,99931.81
2023-04-29T21:11:11.451Z,99933.06
2023-04-29T21:13:38.342Z,99937.69
2023-04-29T21:16:05.456Z,99949.56
2023-04-29T21:18:32.316Z,99941.59
2023-04-29T21:20:59.103Z,99942.84
2023-04-29T21:23:25.872Z,99942.03
2023-04-29T21:25:52.720Z,99937.63
2023-04-29T21:28:19.594Z,99941.03
2023-04-29T21:30:46.415Z,99945.59
2023-04-29T21:33:13.251Z,99948.31
2023-04-29T21:35:42.353Z,99948.31
2023-04-29T21:38:09.381Z,99959.53
2023-04-29T21:40:41.610Z,99956.81
2023-04-29T21:43:09.761Z,99955.69
2023-04-29T21:45:36.703Z,99963.69
2023-04-29T21:48:15.820Z,99960.00
2023-04-29T21:50:43.676Z,99969.06
2023-04-29T21:53:13.219Z,99974.69
2023-04-29T21:55:41.847Z,99971.75
2023-04-29T21:58:09.097Z,99968.75
2023-04-29T22:00:41.230Z,99967.38
2023-04-29T22:03:09.957Z,99967.66
2023-04-29T22:05:37.516Z,99970.25
2023-04-29T22:08:07.417Z,99963.09
2023-04-29T22:10:34.904Z,99964.31
2023-04-29T22:13:01.889Z,99961.72
2023-04-29T22:15:30.043Z,99959.72
2023-04-29T22:17:57.868Z,99954.00
2023-04-29T22:20:25.773Z,99947.91
2023-04-29T22:22:53.006Z,99947.88
2023-04-29T22:25:21.744Z,99952.75
2023-04-29T22:27:49.439Z,99954.94
2023-04-29T22:30:17.896Z,99955.16
2023-04-29T22:32:45.730Z,99956.97
2023-04-29T22:35:12.683Z,99956.59
2023-04-29T22:37:39.660Z,99953.84
2023-04-29T22:40:07.793Z,99956.28
2023-04-29T22:42:35.437Z,99960.56
2023-04-29T22:45:02.659Z,99960.25
2023-04-29T22:47:31.639Z,99964.50
2023-04-29T22:49:58.556Z,99964.13
2023-04-29T22:52:27.757Z,99972.94
2023-04-29T22:54:54.710Z,99974.97
2023-04-29T22:57:23.743Z,99966.34
2023-04-29T22:59:55.050Z,99970.19
2023-04-29T23:02:27.542Z,99974.81
2023-04-29T23:04:56.059Z,99984.25
2023-04-29T23:07:23.563Z,99988.66
2023-04-29T23:09:51.262Z,99996.72
2023-04-29T23:12:19.874Z,99995.91
2023-04-29T23:14:47.112Z,99999.75
2023-04-29T23:17:14.038Z,99993.97
2023-04-29T23:19:40.899Z,99991.19
2023-04-29T23:22:07.679Z,100000.44
2023-04-29T23:24:35.718Z,100002.09
2023-04-29T23:27:04.183Z,99993.88
2023-04-29T23:29:34.469Z,100001.75
2023-04-29T23:32:02.003Z,99994.16
2023-04-29T23:34:29.148Z,99997.56
2023-04-29T23:36:56.034Z,100004.59
2023-04-29T23:39:23.084Z,100009.63
2023-04-29T23:41:50.099Z,100009.06
2023-04-29T23:44:16.974Z,100014.06
2023-04-29T23:46:43.987Z,100015.44
2023-04-29T23:49:10.919Z,100005.09
2023-04-29T23:51:37.794Z,100011.50
2023-04-29T23:54:04.654Z,100003.31
2023-04-29T23:56:35.947Z,100007.38
2023-04-29T23:59:02.966Z,100013.97
